createdAt,value
2019-06-20T00:02:22.369Z,22.55
2019-06-20T00:06:27.297Z,22.57
2019-06-20T00:10:32.252Z,22.57
2019-06-20T00:14:37.153Z,22.60
2019-06-20T00:18:42.045Z,22.63
2019-06-20T00:22:46.949Z,22.68
2019-06-20T00:26:51.845Z,22.77
2019-06-20T00:30:56.741Z,22.83
2019-06-20T00:35:01.646Z,22.84
2019-06-20T00:39:08.075Z,22.82
2019-06-20T00:43:17.396Z,22.81
2019-06-20T00:47:19.650Z,22.77
2019-06-20T00:51:24.541Z,22.72
2019-06-20T00:55:29.455Z,22.67
2019-06-20T00:59:34.337Z,22.72
2019-06-20T01:03:39.237Z,22.74
2019-06-20T01:07:44.213Z,22.74
2019-06-20T01:11:49.134Z,22.67
2019-06-20T01:15:54.031Z,22.53
2019-06-20T01:19:58.925Z,22.44
2019-06-20T01:24:03.901Z,22.36
2019-06-20T01:28:09.241Z,22.29
2019-06-20T01:32:14.155Z,22.24
2019-06-20T01:36:19.047Z,22.20
2019-06-20T01:40:23.933Z,22.17
2019-06-20T01:44:28.851Z,22.17
2019-06-20T01:48:33.756Z,22.12
2019-06-20T01:52:38.654Z,22.04
2019-06-20T01:56:43.555Z,22.00
2019-06-20T02:00:50.821Z,21.94
2019-06-20T02:04:55.718Z,21.87
2019-06-20T02:09:00.614Z,21.82
2019-06-20T02:13:07.279Z,21.75
2019-06-20T02:17:12.167Z,21.70
2019-06-20T02:21:17.067Z,21.66
2019-06-20T02:25:21.952Z,21.60
2019-06-20T02:29:26.843Z,21.59
2019-06-20T02:33:31.731Z,21.57
2019-06-20T02:37:36.620Z,21.61
2019-06-20T02:41:41.674Z,21.61
2019-06-20T02:45:46.554Z,21.58
2019-06-20T02:49:51.453Z,21.53
2019-06-20T02:53:56.339Z,21.51
2019-06-20T02:58:01.246Z,21.47
2019-06-20T03:02:06.131Z,21.41
2019-06-20T03:06:10.999Z,21.30
2019-06-20T03:10:17.029Z,21.25
2019-06-20T03:14:21.921Z,21.19
2019-06-20T03:18:26.808Z,21.07
2019-06-20T03:22:31.698Z,20.98
2019-06-20T03:26:36.577Z,20.90
2019-06-20T03:30:41.463Z,20.84
2019-06-20T03:34:46.342Z,20.78
2019-06-20T03:38:51.236Z,20.75
2019-06-20T03:42:56.132Z,20.75
2019-06-20T03:47:01.015Z,20.75
2019-06-20T03:51:05.938Z,20.72
2019-06-20T03:55:12.288Z,20.65
2019-06-20T03:59:17.135Z,20.61
2019-06-20T04:03:22.033Z,20.61
2019-06-20T04:07:26.972Z,20.56
2019-06-20T04:11:31.811Z,20.59
2019-06-20T04:15:36.709Z,20.58
2019-06-20T04:19:41.602Z,20.58
2019-06-20T04:23:46.498Z,20.70
2019-06-20T04:27:51.542Z,23.14
2019-06-20T04:31:56.356Z,23.68
2019-06-20T04:36:01.295Z,24.16
2019-06-20T04:40:07.866Z,25.51
2019-06-20T04:44:12.759Z,25.50
2019-06-20T04:48:17.642Z,25.60
2019-06-20T04:52:22.532Z,27.38
2019-06-20T04:56:27.431Z,26.81
2019-06-20T05:00:32.322Z,25.41
2019-06-20T05:04:37.216Z,23.96
2019-06-20T05:08:42.103Z,22.95
2019-06-20T05:12:47.005Z,23.73
2019-06-20T05:16:51.900Z,24.03
2019-06-20T05:20:56.829Z,24.40
2019-06-20T05:25:02.761Z,24.93
2019-06-20T05:29:07.647Z,24.89
2019-06-20T05:33:12.912Z,26.18
2019-06-20T05:37:17.812Z,26.22
2019-06-20T05:41:22.711Z,26.29
2019-06-20T05:45:27.678Z,30.81
2019-06-20T05:49:32.564Z,33.76
2019-06-20T05:53:37.536Z,34.06
2019-06-20T05:57:42.365Z,36.06
2019-06-20T06:01:47.266Z,35.20
2019-06-20T06:05:52.163Z,32.52
2019-06-20T06:09:57.103Z,31.06
2019-06-20T06:14:01.971Z,30.41
2019-06-20T06:18:06.877Z,29.87
2019-06-20T06:22:11.786Z,29.38
2019-06-20T06:26:16.682Z,29.31
2019-06-20T06:30:22.355Z,30.21
2019-06-20T06:34:27.237Z,32.18
2019-06-20T06:38:32.145Z,30.65
2019-06-20T06:42:37.047Z,30.50
2019-06-20T06:46:47.088Z,30.81
2019-06-20T06:50:48.550Z,28.80
2019-06-20T06:54:53.446Z,27.78
2019-06-20T06:58:58.346Z,27.26
2019-06-20T07:03:03.249Z,26.96
2019-06-20T07:07:08.160Z,27.12
2019-06-20T07:11:13.051Z,27.79
2019-06-20T07:15:18.356Z,28.61
2019-06-20T07:19:23.274Z,28.23
2019-06-20T07:23:28.166Z,27.67
2019-06-20T07:27:33.059Z,27.25
2019-06-20T07:31:37.956Z,27.11
2019-06-20T07:35:43.987Z,27.23
2019-06-20T07:39:48.885Z,27.20
2019-06-20T07:43:53.860Z,27.10
2019-06-20T07:47:58.751Z,26.92
2019-06-20T07:52:03.657Z,26.91
2019-06-20T07:56:09.495Z,27.02
2019-06-20T08:00:16.445Z,26.69
2019-06-20T08:04:21.326Z,26.54
2019-06-20T08:08:26.225Z,26.57
2019-06-20T08:12:31.131Z,26.96
2019-06-20T08:16:36.027Z,27.27
2019-06-20T08:20:40.914Z,27.20
2019-06-20T08:24:45.820Z,27.67
2019-06-20T08:29:07.118Z,27.92
2019-06-20T08:32:59.653Z,28.17
2019-06-20T08:37:04.421Z,28.27
2019-06-20T08:41:09.306Z,28.35
2019-06-20T08:45:14.564Z,28.25
2019-06-20T08:49:19.467Z,28.04
2019-06-20T08:53:24.382Z,28.04
2019-06-20T08:57:29.260Z,28.16
2019-06-20T09:01:34.148Z,28.00
2019-06-20T09:05:39.048Z,27.80
2019-06-20T09:09:43.952Z,27.89
2019-06-20T09:13:48.847Z,27.83
2019-06-20T09:17:55.158Z,27.90
2019-06-20T09:22:00.580Z,27.75
2019-06-20T09:26:05.601Z,27.83
2019-06-20T09:30:11.428Z,27.98
2019-06-20T09:34:16.329Z,27.80
2019-06-20T09:38:21.220Z,27.65
2019-06-20T09:42:26.107Z,27.63
2019-06-20T09:46:31.566Z,27.71
2019-06-20T09:50:36.485Z,27.60
2019-06-20T09:54:41.372Z,27.83
2019-06-20T09:58:47.855Z,28.14
2019-06-20T10:02:54.410Z,28.25
2019-06-20T10:06:59.528Z,28.05
2019-06-20T10:11:04.415Z,27.87
2019-06-20T10:15:27.453Z,27.65
2019-06-20T10:19:32.352Z,27.86
2019-06-20T10:23:37.251Z,28.16
2019-06-20T10:27:42.157Z,28.32
2019-06-20T10:31:47.924Z,28.48
2019-06-20T10:35:53.644Z,28.67
2019-06-20T10:39:58.596Z,28.89
2019-06-20T10:44:04.629Z,29.15
2019-06-20T10:48:09.597Z,29.16
2019-06-20T10:52:15.163Z,29.11
2019-06-20T10:56:20.054Z,29.15
2019-06-20T11:00:31.489Z,29.26
2019-06-20T11:04:33.238Z,29.28
2019-06-20T11:08:38.941Z,29.20
2019-06-20T11:12:50.214Z,29.20
2019-06-20T11:16:51.486Z,29.28
2019-06-20T11:20:56.398Z,29.20
2019-06-20T11:25:01.272Z,29.03
2019-06-20T11:29:06.159Z,29.12
2019-06-20T11:33:11.063Z,28.91
2019-06-20T11:37:15.970Z,28.69
2019-06-20T11:41:20.865Z,28.68
2019-06-20T11:45:25.912Z,28.69
2019-06-20T11:49:30.803Z,28.71
2019-06-20T11:53:36.630Z,28.89
2019-06-20T11:57:41.643Z,28.89
2019-06-20T12:01:47.251Z,28.81
2019-06-20T12:05:52.223Z,28.70
2019-06-20T12:09:57.110Z,28.69
2019-06-20T12:14:02.008Z,28.65
2019-06-20T12:18:06.909Z,28.53
2019-06-20T12:22:11.815Z,28.48
2019-06-20T12:26:16.716Z,28.48
2019-06-20T12:30:22.335Z,28.34
2019-06-20T12:34:27.245Z,28.39
2019-06-20T12:38:32.163Z,28.69
2019-06-20T12:42:39.094Z,29.15
2019-06-20T12:46:44.782Z,29.05
2019-06-20T12:50:49.733Z,28.86
2019-06-20T12:54:54.634Z,28.83
2019-06-20T12:58:59.532Z,28.89
2019-06-20T13:03:06.147Z,28.94
2019-06-20T13:07:11.049Z,28.59
2019-06-20T13:11:15.942Z,28.27
2019-06-20T13:15:21.180Z,28.03
2019-06-20T13:19:26.091Z,28.09
2019-06-20T13:23:30.999Z,28.16
2019-06-20T13:27:35.907Z,28.41
2019-06-20T13:31:59.394Z,28.56
2019-06-20T13:35:48.806Z,28.65
2019-06-20T13:39:53.751Z,28.65
2019-06-20T13:43:58.649Z,28.61
2019-06-20T13:48:03.552Z,28.62
2019-06-20T13:52:08.457Z,28.79
2019-06-20T13:56:13.358Z,28.90
2019-06-20T14:00:21.091Z,28.99
2019-06-20T14:04:25.992Z,29.11
2019-06-20T14:08:30.898Z,29.24
2019-06-20T14:12:35.785Z,29.24
2019-06-20T14:16:42.718Z,29.25
2019-06-20T14:20:48.446Z,28.90
2019-06-20T14:24:53.739Z,28.47
2019-06-20T14:28:58.651Z,28.26
2019-06-20T14:33:03.541Z,28.16
2019-06-20T14:37:08.442Z,28.05
2019-06-20T14:41:13.408Z,27.80
2019-06-20T14:45:20.314Z,27.55
2019-06-20T14:49:25.208Z,26.88
2019-06-20T14:53:30.082Z,25.95
2019-06-20T14:57:35.045Z,25.09
2019-06-20T15:01:39.961Z,24.43
2019-06-20T15:05:46.497Z,23.54
2019-06-20T15:09:52.889Z,22.89
2019-06-20T15:13:58.106Z,22.61
2019-06-20T15:18:02.995Z,22.39
2019-06-20T15:22:07.887Z,22.25
2019-06-20T15:26:12.774Z,22.13
2019-06-20T15:30:18.209Z,22.24
2019-06-20T15:34:23.094Z,22.32
2019-06-20T15:38:27.990Z,22.38
2019-06-20T15:42:32.965Z,22.45
2019-06-20T15:46:37.855Z,22.63
2019-06-20T15:50:43.032Z,22.90
2019-06-20T15:54:47.930Z,23.28
2019-06-20T15:58:52.811Z,23.74
2019-06-20T16:03:09.295Z,24.14
2019-06-20T16:07:04.283Z,24.03
2019-06-20T16:11:09.171Z,23.98
2019-06-20T16:15:17.123Z,24.14
2019-06-20T16:19:21.997Z,24.27
2019-06-20T16:23:26.889Z,24.34
2019-06-20T16:27:31.788Z,24.30
2019-06-20T16:31:36.697Z,24.23
2019-06-20T16:35:41.597Z,24.12
2019-06-20T16:39:46.491Z,23.96
2019-06-20T16:43:51.395Z,23.88
2019-06-20T16:47:56.293Z,23.73
2019-06-20T16:52:01.189Z,23.43
2019-06-20T16:56:06.170Z,23.25
2019-06-20T17:00:11.888Z,23.17
2019-06-20T17:04:16.787Z,22.99
2019-06-20T17:08:22.069Z,23.03
2019-06-20T17:12:26.951Z,23.05
2019-06-20T17:16:31.843Z,23.10
2019-06-20T17:20:36.729Z,23.21
2019-06-20T17:24:41.624Z,23.30
2019-06-20T17:28:46.523Z,23.36
2019-06-20T17:32:51.416Z,23.20
2019-06-20T17:36:56.336Z,23.16
2019-06-20T17:41:01.227Z,23.08
2019-06-20T17:45:08.758Z,22.99
2019-06-20T17:49:13.651Z,22.83
2019-06-20T17:53:18.545Z,22.65
2019-06-20T17:57:23.440Z,22.50
2019-06-20T18:01:29.290Z,22.35
2019-06-20T18:05:34.184Z,22.29
2019-06-20T18:09:39.083Z,22.14
2019-06-20T18:13:45.571Z,22.07
2019-06-20T18:17:50.466Z,22.09
2019-06-20T18:21:55.350Z,21.96
2019-06-20T18:26:00.254Z,21.85
2019-06-20T18:30:11.646Z,21.78
2019-06-20T18:34:29.196Z,21.72
2019-06-20T18:38:23.125Z,21.57
2019-06-20T18:42:28.021Z,21.44
2019-06-20T18:46:32.912Z,21.39
2019-06-20T18:50:37.793Z,21.39
2019-06-20T18:54:42.693Z,21.40
2019-06-20T18:58:47.580Z,21.27
2019-06-20T19:02:52.469Z,21.22
2019-06-20T19:06:57.346Z,21.19
2019-06-20T19:11:02.238Z,21.17
2019-06-20T19:15:08.156Z,21.09
2019-06-20T19:19:13.047Z,20.96
2019-06-20T19:23:17.971Z,20.71
2019-06-20T19:27:22.938Z,20.41
2019-06-20T19:31:27.825Z,20.24
2019-06-20T19:35:32.714Z,20.09
2019-06-20T19:39:37.597Z,19.87
2019-06-20T19:43:42.482Z,19.73
2019-06-20T19:47:47.367Z,19.63
2019-06-20T19:51:52.309Z,19.57
2019-06-20T19:55:57.271Z,19.60
2019-06-20T20:00:02.299Z,19.67
2019-06-20T20:04:07.358Z,19.73
2019-06-20T20:08:12.350Z,19.68
2019-06-20T20:12:17.266Z,19.60
2019-06-20T20:16:22.155Z,19.51
2019-06-20T20:20:27.057Z,19.49
2019-06-20T20:24:31.949Z,19.54
2019-06-20T20:28:36.849Z,19.60
2019-06-20T20:32:41.749Z,19.63
2019-06-20T20:36:46.665Z,19.76
2019-06-20T20:40:51.547Z,19.77
2019-06-20T20:44:56.435Z,19.75
2019-06-20T20:49:01.347Z,19.62
2019-06-20T20:53:06.315Z,19.52
2019-06-20T20:57:11.217Z,19.43
2019-06-20T21:01:24.715Z,19.32
2019-06-20T21:05:29.591Z,19.30
2019-06-20T21:09:35.563Z,19.23
2019-06-20T21:13:40.488Z,19.13
2019-06-20T21:17:45.367Z,18.95
2019-06-20T21:21:50.276Z,18.82
2019-06-20T21:25:55.172Z,18.81
2019-06-20T21:30:01.139Z,18.79
2019-06-20T21:34:06.040Z,18.77
2019-06-20T21:38:10.939Z,18.71
2019-06-20T21:42:15.836Z,18.68
2019-06-20T21:46:20.729Z,18.69
2019-06-20T21:50:25.637Z,18.63
2019-06-20T21:54:30.548Z,18.59
2019-06-20T21:58:35.432Z,18.56
2019-06-20T22:02:40.400Z,18.53
2019-06-20T22:06:45.292Z,18.44
2019-06-20T22:10:50.191Z,18.46
2019-06-20T22:14:55.096Z,18.47
2019-06-20T22:18:59.992Z,18.49
2019-06-20T22:23:05.333Z,18.42
2019-06-20T22:27:10.245Z,18.30
2019-06-20T22:31:15.140Z,18.20
2019-06-20T22:35:20.070Z,18.10
2019-06-20T22:39:24.942Z,18.05
2019-06-20T22:43:29.839Z,18.04
2019-06-20T22:47:34.738Z,18.01
2019-06-20T22:51:39.631Z,17.95
2019-06-20T22:55:44.519Z,17.94
2019-06-20T22:59:49.422Z,17.89
2019-06-20T23:03:54.316Z,17.70
2019-06-20T23:07:59.203Z,17.60
2019-06-20T23:12:04.098Z,17.50
2019-06-20T23:16:09.031Z,17.47
2019-06-20T23:20:14.543Z,17.43
2019-06-20T23:24:19.439Z,17.47
2019-06-20T23:28:24.366Z,17.50
2019-06-20T23:32:29.226Z,17.53
2019-06-20T23:36:34.403Z,17.52
2019-06-20T23:40:39.297Z,17.47
2019-06-20T23:44:44.194Z,17.39
2019-06-20T23:48:49.081Z,17.38
2019-06-20T23:53:12.034Z,17.41
2019-06-20T23:57:16.918Z,17.18
